createdAt,value
2018-12-22T00:01:41.892Z,95673.24
2018-12-22T00:04:08.280Z,95680.22
2018-12-22T00:06:34.735Z,95663.53
2018-12-22T00:09:01.265Z,95684.52
2018-12-22T00:11:27.678Z,95693.77
2018-12-22T00:13:54.018Z,95704.38
2018-12-22T00:16:20.348Z,95705.66
2018-12-22T00:18:46.687Z,95721.79
2018-12-22T00:21:13.056Z,95714.64
2018-12-22T00:23:39.445Z,95709.86
2018-12-22T00:26:05.818Z,95716.83
2018-12-22T00:28:32.123Z,95717.00
2018-12-22T00:30:58.464Z,95724.63
2018-12-22T00:33:24.819Z,95712.50
2018-12-22T00:35:51.282Z,95718.39
2018-12-22T00:38:17.719Z,95726.53
2018-12-22T00:40:44.068Z,95718.56
2018-12-22T00:43:10.403Z,95725.16
2018-12-22T00:45:36.834Z,95718.08
2018-12-22T00:48:03.168Z,95715.33
2018-12-22T00:50:29.543Z,95699.22
2018-12-22T00:52:56.019Z,95703.69
2018-12-22T00:55:22.391Z,95690.96
2018-12-22T00:57:48.708Z,95689.30
2018-12-22T01:00:15.038Z,95692.70
2018-12-22T01:02:41.547Z,95684.34
2018-12-22T01:05:07.883Z,95675.54
2018-12-22T01:07:34.275Z,95678.48
2018-12-22T01:10:00.610Z,95677.09
2018-12-22T01:12:26.930Z,95666.18
2018-12-22T01:14:53.335Z,95650.27
2018-12-22T01:17:19.645Z,95655.84
2018-12-22T01:19:46.011Z,95638.90
2018-12-22T01:22:12.306Z,95649.95
2018-12-22T01:24:38.707Z,95658.41
2018-12-22T01:27:05.162Z,95654.56
2018-12-22T01:29:31.565Z,95645.66
2018-12-22T01:31:57.894Z,95659.31
2018-12-22T01:34:24.295Z,95654.81
2018-12-22T01:36:50.691Z,95654.05
2018-12-22T01:39:17.029Z,95661.30
2018-12-22T01:41:43.384Z,95670.34
2018-12-22T01:44:09.765Z,95654.12
2018-12-22T01:46:36.175Z,95646.98
2018-12-22T01:49:02.512Z,95651.83
2018-12-22T01:51:28.961Z,95661.70
2018-12-22T01:53:55.351Z,95658.23
2018-12-22T01:56:21.724Z,95648.61
2018-12-22T01:58:48.184Z,95650.17
2018-12-22T02:01:14.414Z,95635.68
2018-12-22T02:03:40.741Z,95633.67
2018-12-22T02:06:07.134Z,95632.84
2018-12-22T02:08:33.465Z,95628.54
2018-12-22T02:10:59.814Z,95623.41
2018-12-22T02:13:26.157Z,95624.42
2018-12-22T02:15:52.596Z,95624.42
2018-12-22T02:18:18.956Z,95616.63
2018-12-22T02:20:45.321Z,95615.06
2018-12-22T02:23:11.702Z,95615.96
2018-12-22T02:25:38.031Z,95629.61
2018-12-22T02:28:04.387Z,95622.03
2018-12-22T02:30:30.718Z,95613.70
2018-12-22T02:32:57.094Z,95629.16
2018-12-22T02:35:23.445Z,95608.58
2018-12-22T02:37:49.833Z,95608.44
2018-12-22T02:40:16.176Z,95611.45
2018-12-22T02:42:42.522Z,95598.91
2018-12-22T02:45:08.868Z,95590.15
2018-12-22T02:47:35.259Z,95599.19
2018-12-22T02:50:01.588Z,95611.94
2018-12-22T02:52:28.006Z,95595.91
2018-12-22T02:54:54.352Z,95604.11
2018-12-22T02:57:22.628Z,95585.54
2018-12-22T02:59:47.101Z,95595.06
2018-12-22T03:02:13.459Z,95575.01
2018-12-22T03:04:39.846Z,95560.01
2018-12-22T03:07:06.183Z,95565.77
2018-12-22T03:09:32.630Z,95560.91
2018-12-22T03:11:58.967Z,95567.77
2018-12-22T03:14:25.352Z,95574.59
2018-12-22T03:16:51.732Z,95577.09
2018-12-22T03:19:18.125Z,95566.20
2018-12-22T03:21:44.457Z,95576.19
2018-12-22T03:24:10.795Z,95571.96
2018-12-22T03:26:37.211Z,95580.77
2018-12-22T03:29:03.559Z,95582.28
2018-12-22T03:31:29.975Z,95565.80
2018-12-22T03:33:56.266Z,95568.73
2018-12-22T03:36:22.606Z,95573.59
2018-12-22T03:38:48.941Z,95562.78
2018-12-22T03:41:15.270Z,95564.83
2018-12-22T03:43:41.661Z,95556.48
2018-12-22T03:46:08.017Z,95553.98
2018-12-22T03:48:34.484Z,95560.77
2018-12-22T03:51:00.777Z,95545.95
2018-12-22T03:53:27.246Z,95556.02
2018-12-22T03:55:53.545Z,95559.56
2018-12-22T03:58:19.967Z,95557.00
2018-12-22T04:00:46.332Z,95551.31
2018-12-22T04:03:12.652Z,95540.16
2018-12-22T04:05:38.984Z,95547.75
2018-12-22T04:08:05.341Z,95538.95
2018-12-22T04:10:31.713Z,95532.82
2018-12-22T04:12:58.072Z,95530.64
2018-12-22T04:15:24.417Z,95523.37
2018-12-22T04:17:50.745Z,95525.76
2018-12-22T04:20:17.092Z,95532.34
2018-12-22T04:22:43.486Z,95536.63
2018-12-22T04:25:09.836Z,95535.00
2018-12-22T04:27:36.167Z,95544.25
2018-12-22T04:30:02.543Z,95543.25
2018-12-22T04:32:28.898Z,95538.12
2018-12-22T04:34:55.439Z,95532.27
2018-12-22T04:37:21.688Z,95532.16
2018-12-22T04:39:48.071Z,95548.64
2018-12-22T04:42:14.405Z,95549.55
2018-12-22T04:44:40.744Z,95547.81
2018-12-22T04:47:07.068Z,95549.55
2018-12-22T04:49:33.399Z,95553.77
2018-12-22T04:51:59.797Z,95557.69
2018-12-22T04:54:26.149Z,95550.00
2018-12-22T04:56:52.485Z,95556.67
2018-12-22T04:59:18.836Z,95539.09
2018-12-22T05:01:45.167Z,95546.33
2018-12-22T05:04:11.497Z,95546.16
2018-12-22T05:06:37.869Z,95552.35
2018-12-22T05:09:04.198Z,95545.49
2018-12-22T05:11:30.591Z,95562.60
2018-12-22T05:13:57.042Z,95547.23
2018-12-22T05:16:23.434Z,95562.32
2018-12-22T05:18:49.781Z,95559.23
2018-12-22T05:21:16.103Z,95582.93
2018-12-22T05:23:42.436Z,95570.18
2018-12-22T05:26:08.763Z,95586.66
2018-12-22T05:28:35.166Z,95577.41
2018-12-22T05:31:01.584Z,95587.11
2018-12-22T05:33:27.928Z,95565.50
2018-12-22T05:35:54.271Z,95586.77
2018-12-22T05:38:20.676Z,95581.09
2018-12-22T05:40:47.013Z,95577.13
2018-12-22T05:43:13.404Z,95585.83
2018-12-22T05:45:39.757Z,95585.66
2018-12-22T05:48:06.167Z,95595.73
2018-12-22T05:50:32.543Z,95572.08
2018-12-22T05:52:58.871Z,95568.23
2018-12-22T05:55:25.248Z,95588.11
2018-12-22T05:57:51.549Z,95597.18
2018-12-22T06:00:17.948Z,95598.08
2018-12-22T06:02:44.275Z,95580.98
2018-12-22T06:05:10.657Z,95582.16
2018-12-22T06:07:36.987Z,95573.81
2018-12-22T06:10:03.391Z,95579.48
2018-12-22T06:12:29.740Z,95547.67
2018-12-22T06:14:56.240Z,95563.39
2018-12-22T06:17:22.587Z,95556.53
2018-12-22T06:19:48.985Z,95577.48
2018-12-22T06:22:15.322Z,95569.00
2018-12-22T06:24:41.650Z,95563.11
2018-12-22T06:27:08.029Z,95583.89
2018-12-22T06:29:34.378Z,95597.02
2018-12-22T06:32:00.755Z,95589.67
2018-12-22T06:34:27.184Z,95576.35
2018-12-22T06:36:53.530Z,95595.44
2018-12-22T06:39:19.874Z,95620.64
2018-12-22T06:41:46.383Z,95624.91
2018-12-22T06:44:12.727Z,95616.95
2018-12-22T06:46:39.060Z,95610.92
2018-12-22T06:49:05.454Z,95602.97
2018-12-22T06:51:31.765Z,95602.66
2018-12-22T06:53:58.079Z,95603.27
2018-12-22T06:56:24.439Z,95596.31
2018-12-22T06:58:50.858Z,95587.63
2018-12-22T07:01:17.145Z,95593.03
2018-12-22T07:03:43.534Z,95579.23
2018-12-22T07:06:09.925Z,95577.05
2018-12-22T07:08:36.254Z,95556.27
2018-12-22T07:11:02.568Z,95581.66
2018-12-22T07:13:28.918Z,95592.54
2018-12-22T07:15:55.263Z,95595.48
2018-12-22T07:18:21.638Z,95597.67
2018-12-22T07:20:47.969Z,95594.83
2018-12-22T07:23:14.351Z,95585.94
2018-12-22T07:25:40.699Z,95593.70
2018-12-22T07:28:07.041Z,95596.23
2018-12-22T07:30:33.475Z,95605.56
2018-12-22T07:32:59.829Z,95595.41
2018-12-22T07:35:26.151Z,95611.52
2018-12-22T07:37:52.493Z,95616.48
2018-12-22T07:40:18.820Z,95621.32
2018-12-22T07:42:45.271Z,95617.27
2018-12-22T07:45:11.655Z,95612.80
2018-12-22T07:47:38.018Z,95619.41
2018-12-22T07:50:04.463Z,95614.11
2018-12-22T07:52:30.836Z,95623.94
2018-12-22T07:54:57.141Z,95640.23
2018-12-22T07:57:23.518Z,95642.73
2018-12-22T07:59:49.983Z,95644.81
2018-12-22T08:02:16.360Z,95637.67
2018-12-22T08:04:42.722Z,95638.05
2018-12-22T08:07:09.111Z,95635.59
2018-12-22T08:09:35.459Z,95643.18
2018-12-22T08:12:01.788Z,95629.62
2018-12-22T08:14:28.198Z,95637.70
2018-12-22T08:16:54.507Z,95634.85
2018-12-22T08:19:20.849Z,95637.80
2018-12-22T08:21:47.188Z,95640.54
2018-12-22T08:24:13.613Z,95639.80
2018-12-22T08:26:39.955Z,95643.95
2018-12-22T08:29:06.306Z,95643.95
2018-12-22T08:31:32.641Z,95629.64
2018-12-22T08:33:58.991Z,95633.86
2018-12-22T08:36:25.337Z,95640.84
2018-12-22T08:38:51.723Z,95637.16
2018-12-22T08:41:18.042Z,95635.33
2018-12-22T08:43:45.580Z,95640.01
2018-12-22T08:46:12.108Z,95650.75
2018-12-22T08:48:38.535Z,95630.32
2018-12-22T08:51:04.821Z,95630.30
2018-12-22T08:53:31.155Z,95634.63
2018-12-22T08:55:57.504Z,95631.52
2018-12-22T08:58:23.937Z,95624.08
2018-12-22T09:00:52.333Z,95612.71
2018-12-22T09:03:16.746Z,95619.78
2018-12-22T09:05:43.078Z,95613.38
2018-12-22T09:08:09.471Z,95623.27
2018-12-22T09:10:35.816Z,95613.08
2018-12-22T09:13:02.202Z,95619.06
2018-12-22T09:15:28.579Z,95602.73
2018-12-22T09:17:54.915Z,95600.91
2018-12-22T09:20:21.294Z,95601.20
2018-12-22T09:22:47.626Z,95601.89
2018-12-22T09:25:13.955Z,95606.32
2018-12-22T09:27:40.357Z,95599.80
2018-12-22T09:30:06.722Z,95588.69
2018-12-22T09:32:33.051Z,95592.09
2018-12-22T09:34:59.457Z,95585.67
2018-12-22T09:37:25.880Z,95575.40
2018-12-22T09:39:52.144Z,95582.92
2018-12-22T09:42:18.487Z,95560.94
2018-12-22T09:44:44.869Z,95553.23
2018-12-22T09:47:11.204Z,95557.16
2018-12-22T09:49:37.595Z,95550.36
2018-12-22T09:52:03.926Z,95560.38
2018-12-22T09:54:30.336Z,95544.97
2018-12-22T09:56:56.666Z,95536.05
2018-12-22T09:59:23.005Z,95534.69
2018-12-22T10:01:49.393Z,95537.83
2018-12-22T10:04:15.725Z,95533.98
2018-12-22T10:06:42.091Z,95521.94
2018-12-22T10:09:08.431Z,95516.72
2018-12-22T10:11:34.773Z,95520.12
2018-12-22T10:14:01.249Z,95521.78
2018-12-22T10:16:27.618Z,95511.96
2018-12-22T10:18:53.947Z,95517.81
2018-12-22T10:21:20.330Z,95502.78
2018-12-22T10:23:46.675Z,95499.77
2018-12-22T10:26:13.022Z,95491.95
2018-12-22T10:28:39.406Z,95484.81
2018-12-22T10:31:05.748Z,95485.91
2018-12-22T10:33:32.100Z,95473.78
2018-12-22T10:35:58.465Z,95475.02
2018-12-22T10:38:24.806Z,95471.70
2018-12-22T10:40:51.243Z,95470.23
2018-12-22T10:43:17.610Z,95457.47
2018-12-22T10:45:43.936Z,95448.69
2018-12-22T10:48:10.328Z,95457.94
2018-12-22T10:50:36.657Z,95451.51
2018-12-22T10:53:03.036Z,95453.98
2018-12-22T10:55:29.318Z,95458.92
2018-12-22T10:57:55.695Z,95441.58
2018-12-22T11:00:22.081Z,95444.53
2018-12-22T11:02:48.473Z,95444.59
2018-12-22T11:05:14.779Z,95436.75
2018-12-22T11:07:41.191Z,95449.13
2018-12-22T11:10:07.550Z,95437.20
2018-12-22T11:12:33.955Z,95437.77
2018-12-22T11:15:00.220Z,95432.26
2018-12-22T11:17:26.620Z,95433.02
2018-12-22T11:19:53.227Z,95428.63
2018-12-22T11:22:19.518Z,95411.56
2018-12-22T11:24:45.943Z,95409.25
2018-12-22T11:27:12.250Z,95402.08
2018-12-22T11:29:38.647Z,95396.98
2018-12-22T11:32:05.045Z,95395.44
2018-12-22T11:34:31.365Z,95393.44
2018-12-22T11:36:57.705Z,95398.58
2018-12-22T11:39:24.096Z,95390.05
2018-12-22T11:41:50.446Z,95388.19
2018-12-22T11:44:16.794Z,95385.47
2018-12-22T11:46:43.143Z,95380.14
2018-12-22T11:49:09.494Z,95380.36
2018-12-22T11:51:35.825Z,95372.26
2018-12-22T11:54:02.311Z,95363.58
2018-12-22T11:56:28.645Z,95360.24
2018-12-22T11:58:54.973Z,95363.38
2018-12-22T12:01:21.308Z,95364.41
2018-12-22T12:03:47.647Z,95367.66
2018-12-22T12:06:13.976Z,95374.14
2018-12-22T12:08:40.363Z,95374.48
2018-12-22T12:11:06.693Z,95377.39
2018-12-22T12:13:33.163Z,95371.95
2018-12-22T12:15:59.491Z,95371.71
2018-12-22T12:18:25.833Z,95367.03
2018-12-22T12:20:52.192Z,95371.31
2018-12-22T12:23:18.636Z,95379.94
2018-12-22T12:25:44.983Z,95379.34
2018-12-22T12:28:11.324Z,95366.34
2018-12-22T12:30:37.656Z,95364.12
2018-12-22T12:33:04.114Z,95373.53
2018-12-22T12:35:30.468Z,95374.91
2018-12-22T12:37:56.809Z,95379.86
2018-12-22T12:40:23.154Z,95379.48
2018-12-22T12:42:49.486Z,95373.40
2018-12-22T12:45:15.825Z,95376.42
2018-12-22T12:47:42.171Z,95370.62
2018-12-22T12:50:08.514Z,95359.41
2018-12-22T12:52:34.963Z,95367.20
2018-12-22T12:55:01.395Z,95368.41
2018-12-22T12:57:27.753Z,95369.46
2018-12-22T12:59:54.135Z,95365.72
2018-12-22T13:02:20.488Z,95355.64
2018-12-22T13:04:46.876Z,95353.08
2018-12-22T13:07:15.185Z,95346.11
2018-12-22T13:09:39.617Z,95345.40
2018-12-22T13:12:05.974Z,95344.48
2018-12-22T13:14:32.315Z,95338.66
2018-12-22T13:16:58.710Z,95344.48
2018-12-22T13:19:25.054Z,95341.09
2018-12-22T13:21:51.548Z,95338.95
2018-12-22T13:24:18.561Z,95332.81
2018-12-22T13:26:44.292Z,95329.16
2018-12-22T13:29:10.696Z,95340.08
2018-12-22T13:31:37.044Z,95334.23
2018-12-22T13:34:03.430Z,95334.31
2018-12-22T13:36:34.424Z,95341.73
2018-12-22T13:38:56.165Z,95347.01
2018-12-22T13:41:22.538Z,95349.87
2018-12-22T13:43:48.880Z,95345.27
2018-12-22T13:46:15.344Z,95349.33
2018-12-22T13:48:41.876Z,95348.28
2018-12-22T13:51:08.399Z,95352.55
2018-12-22T13:53:34.573Z,95342.36
2018-12-22T13:56:00.915Z,95340.41
2018-12-22T13:58:27.329Z,95344.22
2018-12-22T14:00:53.672Z,95340.66
2018-12-22T14:03:20.065Z,95338.70
2018-12-22T14:05:46.430Z,95338.54
2018-12-22T14:08:12.818Z,95326.09
2018-12-22T14:10:39.170Z,95328.72
2018-12-22T14:13:05.509Z,95333.82
2018-12-22T14:15:31.887Z,95336.19
2018-12-22T14:17:58.373Z,95346.66
2018-12-22T14:20:24.779Z,95346.05
2018-12-22T14:22:51.240Z,95345.70
2018-12-22T14:25:17.607Z,95340.20
2018-12-22T14:27:44.003Z,95332.41
2018-12-22T14:30:10.335Z,95321.63
2018-12-22T14:32:36.742Z,95329.23
2018-12-22T14:35:03.066Z,95325.93
2018-12-22T14:37:29.450Z,95326.42
2018-12-22T14:39:55.821Z,95321.36
2018-12-22T14:42:22.180Z,95330.27
2018-12-22T14:44:48.519Z,95319.74
2018-12-22T14:47:14.947Z,95321.78
2018-12-22T14:49:41.284Z,95317.08
2018-12-22T14:52:07.643Z,95323.84
2018-12-22T14:54:34.040Z,95324.36
2018-12-22T14:57:00.386Z,95323.09
2018-12-22T14:59:26.765Z,95330.83
2018-12-22T15:01:53.124Z,95326.34
2018-12-22T15:04:19.531Z,95316.45
2018-12-22T15:06:45.853Z,95323.11
2018-12-22T15:09:13.430Z,95325.67
2018-12-22T15:11:38.574Z,95337.15
2018-12-22T15:14:04.933Z,95337.64
2018-12-22T15:16:31.450Z,95333.98
2018-12-22T15:18:57.788Z,95339.38
2018-12-22T15:21:24.137Z,95346.45
2018-12-22T15:23:50.526Z,95344.34
2018-12-22T15:26:16.905Z,95350.79
2018-12-22T15:28:47.083Z,95335.06
2018-12-22T15:31:09.629Z,95342.66
2018-12-22T15:33:36.029Z,95339.80
2018-12-22T15:36:02.375Z,95332.78
2018-12-22T15:38:28.839Z,95320.57
2018-12-22T15:40:55.141Z,95321.92
2018-12-22T15:43:21.473Z,95318.38
2018-12-22T15:45:47.877Z,95320.94
2018-12-22T15:48:14.218Z,95326.34
2018-12-22T15:50:40.616Z,95321.71
2018-12-22T15:53:06.952Z,95310.24
2018-12-22T15:55:33.304Z,95315.92
2018-12-22T15:57:59.713Z,95310.44
2018-12-22T16:00:26.200Z,95307.59
2018-12-22T16:02:53.390Z,95319.14
2018-12-22T16:05:18.948Z,95328.47
2018-12-22T16:07:45.366Z,95324.84
2018-12-22T16:10:11.708Z,95332.66
2018-12-22T16:12:38.101Z,95327.30
2018-12-22T16:15:04.477Z,95343.48
2018-12-22T16:17:30.832Z,95337.97
2018-12-22T16:19:57.211Z,95338.71
2018-12-22T16:22:23.529Z,95331.72
2018-12-22T16:24:49.924Z,95344.69
2018-12-22T16:27:16.358Z,95336.52
2018-12-22T16:29:42.699Z,95333.66
2018-12-22T16:32:09.038Z,95324.87
2018-12-22T16:34:35.413Z,95329.29
2018-12-22T16:37:01.753Z,95326.92
2018-12-22T16:39:28.129Z,95317.76
2018-12-22T16:41:54.512Z,95319.61
2018-12-22T16:44:20.899Z,95320.98
2018-12-22T16:46:47.299Z,95333.09
2018-12-22T16:49:13.637Z,95326.77
2018-12-22T16:51:39.968Z,95331.38
2018-12-22T16:54:06.321Z,95320.66
2018-12-22T16:56:32.739Z,95329.27
2018-12-22T16:58:59.084Z,95332.40
2018-12-22T17:01:25.501Z,95329.46
2018-12-22T17:03:51.835Z,95334.67
2018-12-22T17:06:18.255Z,95333.12
2018-12-22T17:08:44.655Z,95331.13
2018-12-22T17:11:11.089Z,95331.58
2018-12-22T17:13:37.383Z,95342.68
2018-12-22T17:16:03.732Z,95336.99
2018-12-22T17:18:30.106Z,95336.08
2018-12-22T17:20:56.433Z,95349.37
2018-12-22T17:23:22.770Z,95349.37
2018-12-22T17:25:49.111Z,95342.43
2018-12-22T17:28:15.455Z,95335.27
2018-12-22T17:30:41.870Z,95342.43
2018-12-22T17:33:08.253Z,95348.09
2018-12-22T17:35:34.583Z,95342.80
2018-12-22T17:38:00.963Z,95346.47
2018-12-22T17:40:27.344Z,95340.05
2018-12-22T17:42:53.681Z,95357.64
2018-12-22T17:45:20.138Z,95354.09
2018-12-22T17:47:46.541Z,95355.45
2018-12-22T17:50:12.870Z,95354.89
2018-12-22T17:52:39.207Z,95358.20
2018-12-22T17:55:05.588Z,95365.91
2018-12-22T17:57:31.997Z,95345.64
2018-12-22T17:59:58.345Z,95345.01
2018-12-22T18:02:24.671Z,95350.89
2018-12-22T18:04:51.052Z,95343.73
2018-12-22T18:07:17.386Z,95317.81
2018-12-22T18:09:43.739Z,95321.28
2018-12-22T18:12:10.092Z,95315.05
2018-12-22T18:14:36.495Z,95312.41
2018-12-22T18:17:02.885Z,95327.62
2018-12-22T18:19:29.329Z,95323.39
2018-12-22T18:21:55.591Z,95322.22
2018-12-22T18:24:21.972Z,95310.30
2018-12-22T18:26:48.311Z,95309.93
2018-12-22T18:29:14.689Z,95309.47
2018-12-22T18:31:41.021Z,95304.91
2018-12-22T18:34:07.415Z,95308.76
2018-12-22T18:36:33.753Z,95309.67
2018-12-22T18:39:00.198Z,95316.45
2018-12-22T18:41:26.555Z,95319.47
2018-12-22T18:43:52.911Z,95322.95
2018-12-22T18:46:19.262Z,95326.26
2018-12-22T18:48:45.594Z,95329.09
2018-12-22T18:51:11.933Z,95323.40
2018-12-22T18:53:38.357Z,95333.77
2018-12-22T18:56:04.695Z,95333.95
2018-12-22T18:58:31.088Z,95330.45
2018-12-22T19:00:57.418Z,95323.33
2018-12-22T19:03:23.848Z,95324.16
2018-12-22T19:05:50.203Z,95330.56
2018-12-22T19:08:16.543Z,95340.83
2018-12-22T19:10:42.883Z,95346.52
2018-12-22T19:13:09.273Z,95343.77
2018-12-22T19:15:35.649Z,95348.59
2018-12-22T19:20:25.740Z,95347.23
2018-12-22T19:22:52.062Z,95356.90
2018-12-22T19:25:18.441Z,95342.48
2018-12-22T19:27:44.873Z,95356.48
2018-12-22T19:30:11.191Z,95367.37
2018-12-22T19:32:37.581Z,95371.86
2018-12-22T19:35:03.917Z,95375.63
2018-12-22T19:37:30.252Z,95370.66
2018-12-22T19:39:56.587Z,95369.91
2018-12-22T19:42:23.030Z,95358.02
2018-12-22T19:44:49.367Z,95369.30
2018-12-22T19:47:15.761Z,95369.56
2018-12-22T19:49:42.146Z,95360.75
2018-12-22T19:52:08.443Z,95357.38
2018-12-22T19:54:34.784Z,95363.05
2018-12-22T19:57:01.119Z,95358.02
2018-12-22T19:59:27.454Z,95357.46
2018-12-22T20:01:53.844Z,95360.59
2018-12-22T20:04:20.183Z,95363.23
2018-12-22T20:06:46.543Z,95365.61
2018-12-22T20:09:12.880Z,95351.34
2018-12-22T20:11:39.214Z,95362.70
2018-12-22T20:14:05.592Z,95348.94
2018-12-22T20:16:31.924Z,95347.77
2018-12-22T20:18:58.426Z,95343.17
2018-12-22T20:21:24.764Z,95335.13
2018-12-22T20:23:51.163Z,95345.55
2018-12-22T20:26:17.553Z,95349.31
2018-12-22T20:28:43.900Z,95348.78
2018-12-22T20:31:10.250Z,95348.12
2018-12-22T20:33:36.650Z,95350.51
2018-12-22T20:36:03.041Z,95363.44
2018-12-22T20:38:29.415Z,95360.12
2018-12-22T20:40:55.774Z,95356.38
2018-12-22T20:43:22.150Z,95349.22
2018-12-22T20:45:48.510Z,95352.88
2018-12-22T20:48:14.847Z,95356.90
2018-12-22T20:50:41.275Z,95350.22
2018-12-22T20:53:07.646Z,95351.06
2018-12-22T20:55:33.998Z,95350.22
2018-12-22T20:58:00.368Z,95358.20
2018-12-22T21:00:26.745Z,95370.08
2018-12-22T21:02:53.160Z,95377.42
2018-12-22T21:05:19.488Z,95374.55
2018-12-22T21:07:45.817Z,95380.31
2018-12-22T21:10:12.163Z,95370.44
2018-12-22T21:12:38.555Z,95367.80
2018-12-22T21:15:04.928Z,95359.36
2018-12-22T21:17:31.291Z,95354.52
2018-12-22T21:19:57.666Z,95359.09
2018-12-22T21:22:24.054Z,95350.58
2018-12-22T21:24:50.388Z,95361.76
2018-12-22T21:27:16.775Z,95360.55
2018-12-22T21:29:43.126Z,95367.33
2018-12-22T21:32:09.530Z,95369.06
2018-12-22T21:34:35.899Z,95371.88
2018-12-22T21:37:02.234Z,95363.30
2018-12-22T21:39:28.624Z,95350.94
2018-12-22T21:41:54.981Z,95353.78
2018-12-22T21:44:21.466Z,95358.42
2018-12-22T21:46:47.819Z,95352.84
2018-12-22T21:49:14.159Z,95357.97
2018-12-22T21:51:40.567Z,95348.17
2018-12-22T21:54:06.899Z,95340.14
2018-12-22T21:56:33.284Z,95336.10
2018-12-22T21:58:59.656Z,95344.62
2018-12-22T22:01:26.032Z,95338.94
2018-12-22T22:03:52.421Z,95339.49
2018-12-22T22:06:18.755Z,95343.41
2018-12-22T22:08:45.092Z,95344.96
2018-12-22T22:11:11.419Z,95342.50
2018-12-22T22:13:37.846Z,95327.97
2018-12-22T22:16:04.165Z,95330.25
2018-12-22T22:18:30.464Z,95338.12
2018-12-22T22:20:56.776Z,95323.55
2018-12-22T22:23:23.175Z,95329.61
2018-12-22T22:25:49.604Z,95328.49
2018-12-22T22:28:15.992Z,95325.31
2018-12-22T22:30:43.063Z,95326.41
2018-12-22T22:33:09.704Z,95316.80
2018-12-22T22:35:36.242Z,95311.75
2018-12-22T22:38:02.951Z,95318.98
2018-12-22T22:40:29.264Z,95322.00
2018-12-22T22:42:55.639Z,95322.90
2018-12-22T22:45:21.967Z,95324.28
2018-12-22T22:47:48.321Z,95320.44
2018-12-22T22:50:14.652Z,95326.84
2018-12-22T22:52:40.987Z,95321.00
2018-12-22T22:55:07.332Z,95312.03
2018-12-22T22:57:33.784Z,95312.03
2018-12-22T23:00:00.175Z,95318.44
2018-12-22T23:02:26.408Z,95318.52
2018-12-22T23:04:54.567Z,95304.98
2018-12-22T23:07:19.120Z,95305.63
2018-12-22T23:09:45.510Z,95307.89
2018-12-22T23:12:11.856Z,95320.70
2018-12-22T23:14:38.228Z,95330.94
2018-12-22T23:17:04.558Z,95330.11
2018-12-22T23:19:30.936Z,95322.28
2018-12-22T23:21:57.268Z,95320.24
2018-12-22T23:24:23.684Z,95305.44
2018-12-22T23:26:50.032Z,95301.03
2018-12-22T23:29:16.387Z,95304.35
2018-12-22T23:31:42.730Z,95303.70
2018-12-22T23:34:09.115Z,95314.40
2018-12-22T23:36:35.457Z,95312.73
2018-12-22T23:39:01.856Z,95317.86
2018-12-22T23:41:28.187Z,95330.67
2018-12-22T23:43:54.516Z,95325.09
2018-12-22T23:46:20.853Z,95317.14
2018-12-22T23:48:47.233Z,95311.08
2018-12-22T23:51:13.566Z,95312.52
2018-12-22T23:53:39.965Z,95308.45
2018-12-22T23:56:06.252Z,95307.80
2018-12-22T23:58:32.651Z,95308.77
